Charleston Air Force Base-International Airport Charleston US
ICAO: KCHS
IATA: CHS
Category: Large
Scheduled Services: Yes

Elevation: 46 ft
TransAlt. 18000 ft.

Airport Communications:
APP:30.692
APP:119.3
ATIS:124.75
CLNC DEL:118
DEP:120.7
GND:121.9
PMSV METRO:34.46
CONSOLIDATED COMD:134.1
PTD:37.22
ANDERSON RDO:122.2
TWR:126
UNICOM:122.95

KCHS Zoom In..

If Map Doesn't Load, Click Here

Runways:

(A) RW 03 length 7000 ft width 150 ft
---- / hdg 31

(B) RW 15 length 9001 ft width 200 ft
ILS 109.70 / hdg 154

(C) RW 21 length 7000 ft width 150 ft
---- / hdg 211

(D) RW 33 length 9001 ft width 200 ft
ILS 108.90 / hdg 334

Location; KCHS
Day. 24 / Time. 04.56 Zulu
* Altimeter: 30.09
* Temperature: 23° c. 73.4°f.
* Wind from: 000° Speed 00 kn.
Dewpoint: 22° c.
Visibility: 8 Statute Miles.
Clouds: Scattered 1000 ft.
Conditions: Shallow Fog.

KCHS 240456Z 00000KT 8SM MIFG SCT100 23/22 A3009 RMK AO2 SLP188 T02280222 403000200 $


Wind - Calm.

 
 
jpsmedia.com for Web Design worldairports.se 2018   terms of use